sensor_id;sensor_type;location;lat;lon;timestamp;P1;durP1;ratioP1;P2;durP2;ratioP2
55710;SDS011;41612;51.994;5.880;2023-03-01T13:33:47;6.13;;;4.30;;
55710;SDS011;41612;51.994;5.880;2023-03-01T13:50:20;4.75;;;2.83;;
55710;SDS011;41612;51.994;5.880;2023-03-01T13:55:23;4.13;;;2.85;;
55710;SDS011;41612;51.994;5.880;2023-03-01T13:58:04;4.75;;;3.20;;
55710;SDS011;41612;51.994;5.880;2023-03-01T14:00:41;3.63;;;2.47;;
55710;SDS011;41612;51.994;5.880;2023-03-01T14:03:14;5.63;;;3.38;;
55710;SDS011;41612;51.994;5.880;2023-03-01T14:05:57;4.65;;;3.42;;
55710;SDS011;41612;51.994;5.880;2023-03-01T14:08:34;3.92;;;2.97;;
55710;SDS011;41612;51.994;5.880;2023-03-01T14:19:15;4.15;;;3.13;;
55710;SDS011;41612;51.994;5.880;2023-03-01T14:21:50;5.00;;;2.92;;
55710;SDS011;41612;51.994;5.880;2023-03-01T14:24:39;4.75;;;3.40;;
55710;SDS011;41612;51.994;5.880;2023-03-01T14:27:11;6.32;;;2.42;;
55710;SDS011;41612;51.994;5.880;2023-03-01T14:29:38;4.60;;;2.97;;
55710;SDS011;41612;51.994;5.880;2023-03-01T14:34:46;5.10;;;3.38;;
55710;SDS011;41612;51.994;5.880;2023-03-01T14:37:21;4.57;;;2.70;;
55710;SDS011;41612;51.994;5.880;2023-03-01T14:39:56;4.97;;;3.22;;
55710;SDS011;41612;51.994;5.880;2023-03-01T14:42:24;5.22;;;3.20;;
55710;SDS011;41612;51.994;5.880;2023-03-01T14:44:55;4.63;;;3.20;;
55710;SDS011;41612;51.994;5.880;2023-03-01T14:47:25;4.68;;;3.03;;
55710;SDS011;41612;51.994;5.880;2023-03-01T14:49:56;4.95;;;3.20;;
55710;SDS011;41612;51.994;5.880;2023-03-01T14:52:27;4.13;;;3.00;;
55710;SDS011;41612;51.994;5.880;2023-03-01T14:55:04;4.43;;;3.00;;
55710;SDS011;41612;51.994;5.880;2023-03-01T14:57:42;7.50;;;4.28;;
55710;SDS011;41612;51.994;5.880;2023-03-01T15:00:10;4.70;;;3.28;;
55710;SDS011;41612;51.994;5.880;2023-03-01T15:02:47;4.93;;;3.22;;
55710;SDS011;41612;51.994;5.880;2023-03-01T15:05:15;4.97;;;3.45;;
55710;SDS011;41612;51.994;5.880;2023-03-01T15:07:47;5.05;;;2.95;;
55710;SDS011;41612;51.994;5.880;2023-03-01T15:10:27;8.52;;;3.45;;
55710;SDS011;41612;51.994;5.880;2023-03-01T15:12:54;4.35;;;2.97;;
55710;SDS011;41612;51.994;5.880;2023-03-01T15:18:01;6.28;;;3.70;;
55710;SDS011;41612;51.994;5.880;2023-03-01T15:20:29;4.55;;;2.70;;
55710;SDS011;41612;51.994;5.880;2023-03-01T15:23:00;4.45;;;3.03;;
55710;SDS011;41612;51.994;5.880;2023-03-01T15:25:27;5.35;;;3.25;;
55710;SDS011;41612;51.994;5.880;2023-03-01T15:27:58;5.40;;;3.17;;
55710;SDS011;41612;51.994;5.880;2023-03-01T15:30:27;5.47;;;3.03;;
55710;SDS011;41612;51.994;5.880;2023-03-01T15:33:26;4.70;;;2.97;;
55710;SDS011;41612;51.994;5.880;2023-03-01T15:36:00;3.78;;;2.53;;
55710;SDS011;41612;51.994;5.880;2023-03-01T15:38:36;6.20;;;3.22;;
55710;SDS011;41612;51.994;5.880;2023-03-01T15:41:37;4.60;;;3.00;;
55710;SDS011;41612;51.994;5.880;2023-03-01T15:44:33;5.18;;;3.42;;
55710;SDS011;41612;51.994;5.880;2023-03-01T15:47:01;4.47;;;3.13;;
55710;SDS011;41612;51.994;5.880;2023-03-01T15:52:17;6.07;;;2.92;;
55710;SDS011;41612;51.994;5.880;2023-03-01T15:55:00;4.57;;;3.15;;
55710;SDS011;41612;51.994;5.880;2023-03-01T15:57:28;4.22;;;2.55;;
55710;SDS011;41612;51.994;5.880;2023-03-01T15:59:54;5.72;;;2.70;;
55710;SDS011;41612;51.994;5.880;2023-03-01T16:02:21;4.90;;;2.88;;
55710;SDS011;41612;51.994;5.880;2023-03-01T16:04:49;3.50;;;2.38;;
55710;SDS011;41612;51.994;5.880;2023-03-01T16:07:16;5.50;;;2.65;;
55710;SDS011;41612;51.994;5.880;2023-03-01T16:09:45;4.72;;;3.13;;
55710;SDS011;41612;51.994;5.880;2023-03-01T16:12:12;4.28;;;2.80;;
55710;SDS011;41612;51.994;5.880;2023-03-01T16:14:40;3.67;;;2.40;;
55710;SDS011;41612;51.994;5.880;2023-03-01T16:17:05;3.17;;;2.08;;
55710;SDS011;41612;51.994;5.880;2023-03-01T16:19:35;4.38;;;2.70;;
55710;SDS011;41612;51.994;5.880;2023-03-01T16:22:02;7.47;;;2.65;;
55710;SDS011;41612;51.994;5.880;2023-03-01T16:24:28;4.05;;;2.38;;
55710;SDS011;41612;51.994;5.880;2023-03-01T16:26:54;4.18;;;2.40;;
55710;SDS011;41612;51.994;5.880;2023-03-01T16:29:19;4.25;;;2.38;;
55710;SDS011;41612;51.994;5.880;2023-03-01T16:31:45;4.57;;;2.85;;
55710;SDS011;41612;51.994;5.880;2023-03-01T16:34:11;5.28;;;2.55;;
55710;SDS011;41612;51.994;5.880;2023-03-01T16:36:37;5.25;;;2.80;;
55710;SDS011;41612;51.994;5.880;2023-03-01T16:39:03;4.72;;;3.25;;
55710;SDS011;41612;51.994;5.880;2023-03-01T16:41:29;5.55;;;2.20;;
55710;SDS011;41612;51.994;5.880;2023-03-01T16:43:55;4.22;;;2.83;;
55710;SDS011;41612;51.994;5.880;2023-03-01T16:46:23;5.75;;;2.70;;
55710;SDS011;41612;51.994;5.880;2023-03-01T16:48:53;5.85;;;3.08;;
55710;SDS011;41612;51.994;5.880;2023-03-01T16:51:19;5.57;;;2.72;;
55710;SDS011;41612;51.994;5.880;2023-03-01T16:53:46;4.22;;;2.95;;
55710;SDS011;41612;51.994;5.880;2023-03-01T16:56:12;4.60;;;2.65;;
55710;SDS011;41612;51.994;5.880;2023-03-01T16:58:40;6.38;;;4.07;;
55710;SDS011;41612;51.994;5.880;2023-03-01T17:01:07;6.93;;;4.03;;
55710;SDS011;41612;51.994;5.880;2023-03-01T17:03:36;5.00;;;3.25;;
55710;SDS011;41612;51.994;5.880;2023-03-01T17:06:05;4.53;;;2.45;;
55710;SDS011;41612;51.994;5.880;2023-03-01T17:08:35;5.13;;;3.15;;
55710;SDS011;41612;51.994;5.880;2023-03-01T17:11:02;5.55;;;2.92;;
55710;SDS011;41612;51.994;5.880;2023-03-01T17:13:30;5.10;;;2.90;;
55710;SDS011;41612;51.994;5.880;2023-03-01T17:15:55;4.53;;;2.90;;
55710;SDS011;41612;51.994;5.880;2023-03-01T17:18:21;4.13;;;2.70;;
55710;SDS011;41612;51.994;5.880;2023-03-01T17:20:47;5.95;;;3.17;;
55710;SDS011;41612;51.994;5.880;2023-03-01T17:23:13;6.85;;;3.60;;
55710;SDS011;41612;51.994;5.880;2023-03-01T17:25:42;11.43;;;3.63;;
55710;SDS011;41612;51.994;5.880;2023-03-01T17:28:12;12.95;;;3.58;;
55710;SDS011;41612;51.994;5.880;2023-03-01T17:30:42;10.15;;;3.33;;
55710;SDS011;41612;51.994;5.880;2023-03-01T17:33:10;6.70;;;3.65;;
55710;SDS011;41612;51.994;5.880;2023-03-01T17:35:39;9.27;;;3.55;;
55710;SDS011;41612;51.994;5.880;2023-03-01T17:38:05;9.50;;;4.07;;
55710;SDS011;41612;51.994;5.880;2023-03-01T17:40:31;4.82;;;2.95;;
55710;SDS011;41612;51.994;5.880;2023-03-01T17:42:57;7.80;;;3.80;;
55710;SDS011;41612;51.994;5.880;2023-03-01T17:45:26;7.90;;;3.85;;
55710;SDS011;41612;51.994;5.880;2023-03-01T17:47:52;5.55;;;3.80;;
55710;SDS011;41612;51.994;5.880;2023-03-01T17:50:24;5.82;;;3.47;;
55710;SDS011;41612;51.994;5.880;2023-03-01T17:52:57;5.13;;;3.65;;
55710;SDS011;41612;51.994;5.880;2023-03-01T17:55:23;6.93;;;3.83;;
55710;SDS011;41612;51.994;5.880;2023-03-01T17:57:49;8.10;;;4.72;;
55710;SDS011;41612;51.994;5.880;2023-03-01T18:00:15;8.35;;;4.03;;
55710;SDS011;41612;51.994;5.880;2023-03-01T18:02:42;6.65;;;4.55;;
55710;SDS011;41612;51.994;5.880;2023-03-01T18:05:08;7.53;;;4.88;;
55710;SDS011;41612;51.994;5.880;2023-03-01T18:07:35;6.43;;;4.10;;
55710;SDS011;41612;51.994;5.880;2023-03-01T18:10:02;6.57;;;4.07;;
55710;SDS011;41612;51.994;5.880;2023-03-01T18:12:28;7.43;;;4.38;;
55710;SDS011;41612;51.994;5.880;2023-03-01T18:14:55;6.00;;;4.03;;
55710;SDS011;41612;51.994;5.880;2023-03-01T18:17:23;6.53;;;4.10;;
55710;SDS011;41612;51.994;5.880;2023-03-01T18:19:49;7.78;;;4.50;;
55710;SDS011;41612;51.994;5.880;2023-03-01T18:22:16;9.77;;;4.97;;
55710;SDS011;41612;51.994;5.880;2023-03-01T18:24:42;7.28;;;5.15;;
55710;SDS011;41612;51.994;5.880;2023-03-01T18:27:08;6.05;;;4.22;;
